Time;durP1;ratioP1;P1;durP2;ratioP2;P2;SDS_P1;SDS_P2;PMS_P1;PMS_P2;Temp;Humidity;BMP_temperature;BMP_pressure;BME280_temperature;BME280_humidity;BME280_pressure;Samples;Min_cycle;Max_cycle;Signal;HPM_P1;HPM_P2
2023/01/24 00:00:06;;;;;;;32.35;15.50;;;4.00;99.90;;;;;;5095090;28;20074;-84
2023/01/24 00:02:32;;;;;;;35.13;15.27;;;3.10;99.90;;;;;;5095347;28;20117;-84
2023/01/24 00:04:58;;;;;;;33.90;15.00;;;3.10;99.90;;;;;;5078335;28;20468;-84
2023/01/24 00:07:24;;;;;;;32.92;15.57;;;3.60;99.90;;;;;;5112330;28;20460;-83
2023/01/24 00:09:49;;;;;;;32.72;15.15;;;3.10;99.90;;;;;;5111953;28;20040;-83
2023/01/24 00:12:15;;;;;;;32.38;14.60;;;3.10;99.90;;;;;;5094745;28;20101;-82
2023/01/24 00:14:41;;;;;;;33.08;15.73;;;3.20;99.90;;;;;;5095193;28;20048;-83
2023/01/24 00:17:09;;;;;;;31.27;14.95;;;3.10;99.90;;;;;;5094747;28;20039;-83
2023/01/24 00:19:35;;;;;;;33.35;15.32;;;3.00;99.90;;;;;;5095128;28;20089;-83
2023/01/24 00:22:04;;;;;;;35.28;16.08;;;3.10;99.90;;;;;;5115042;28;20048;-83
2023/01/24 00:24:32;;;;;;;37.55;16.05;;;3.60;99.90;;;;;;5098403;28;20099;-83
2023/01/24 00:26:58;;;;;;;37.05;16.27;;;3.10;99.90;;;;;;5098970;28;20047;-84
2023/01/24 00:29:24;;;;;;;37.63;17.35;;;3.80;99.90;;;;;;5098915;28;20039;-84
2023/01/24 00:31:50;;;;;;;37.33;15.50;;;3.00;99.90;;;;;;5081989;28;20528;-83
2023/01/24 00:34:16;;;;;;;35.25;15.73;;;3.40;99.90;;;;;;5098651;28;20055;-83
2023/01/24 00:36:41;;;;;;;35.42;15.57;;;3.40;99.90;;;;;;5098374;28;20118;-83
2023/01/24 00:39:08;;;;;;;37.63;16.17;;;3.00;99.90;;;;;;5098378;28;20040;-83
2023/01/24 00:41:34;;;;;;;34.38;15.57;;;3.10;99.90;;;;;;5098498;28;20039;-83
2023/01/24 00:44:00;;;;;;;33.78;15.13;;;3.00;99.90;;;;;;5098432;28;20069;-83
2023/01/24 00:46:25;;;;;;;36.53;17.02;;;3.60;99.90;;;;;;5081276;28;20383;-83
2023/01/24 00:48:51;;;;;;;36.33;16.65;;;3.70;99.90;;;;;;5098561;28;20090;-83
2023/01/24 00:51:17;;;;;;;35.95;15.57;;;3.80;99.90;;;;;;5115230;28;20135;-84
2023/01/24 00:53:42;;;;;;;36.78;16.90;;;3.40;99.90;;;;;;5098402;28;20039;-83
2023/01/24 00:56:08;;;;;;;38.33;17.48;;;3.90;99.90;;;;;;5114963;28;20043;-84
2023/01/24 00:58:34;;;;;;;38.47;16.95;;;3.00;99.90;;;;;;5115159;28;20078;-84
2023/01/24 01:01:02;;;;;;;35.92;16.23;;;3.20;99.90;;;;;;5115136;28;20078;-88
2023/01/24 01:03:28;;;;;;;38.90;16.75;;;3.20;99.90;;;;;;5115336;28;20043;-83
2023/01/24 01:05:59;;;;;;;37.80;16.85;;;3.10;99.90;;;;;;5098268;28;20039;-83
2023/01/24 01:08:25;;;;;;;41.65;18.17;;;3.00;99.90;;;;;;5097931;28;20039;-83
2023/01/24 01:10:50;;;;;;;33.80;15.73;;;3.70;99.90;;;;;;5115348;28;20050;-83
2023/01/24 01:13:16;;;;;;;42.72;18.25;;;3.50;99.90;;;;;;5081025;28;20043;-83
2023/01/24 01:15:42;;;;;;;37.88;17.05;;;3.10;99.90;;;;;;5097761;28;20387;-84
2023/01/24 01:18:08;;;;;;;38.55;16.52;;;3.70;99.90;;;;;;5080817;28;20048;-82
2023/01/24 01:20:34;;;;;;;41.85;17.48;;;3.40;99.90;;;;;;5114794;28;20050;-84
2023/01/24 01:22:59;;;;;;;40.08;17.83;;;3.00;99.90;;;;;;5097463;28;20051;-84
2023/01/24 01:25:25;;;;;;;37.35;16.83;;;3.80;99.90;;;;;;5097636;28;20047;-84
2023/01/24 01:27:51;;;;;;;44.25;18.42;;;3.10;99.90;;;;;;5097820;28;20043;-82
2023/01/24 01:30:17;;;;;;;35.20;16.55;;;3.20;99.90;;;;;;5080316;28;20460;-83
2023/01/24 01:32:43;;;;;;;41.72;17.02;;;3.10;99.90;;;;;;5097175;28;20040;-83
2023/01/24 01:35:09;;;;;;;40.80;18.27;;;3.00;99.90;;;;;;5114297;28;20047;-82
2023/01/24 01:37:35;;;;;;;40.22;17.95;;;3.00;99.90;;;;;;5097432;28;20093;-83
2023/01/24 01:40:01;;;;;;;39.88;17.80;;;3.10;99.90;;;;;;5097330;28;20531;-82
2023/01/24 01:42:40;;;;;;;44.53;17.98;;;3.00;99.90;;;;;;5080545;28;20055;-83
2023/01/24 01:45:27;;;;;;;36.35;16.30;;;3.20;99.90;;;;;;5114386;28;20035;-83
2023/01/24 01:47:54;;;;;;;45.88;18.35;;;3.00;99.90;;;;;;5114314;28;20051;-83
2023/01/24 01:50:31;;;;;;;39.40;17.33;;;3.50;99.90;;;;;;5097172;28;20035;-82
2023/01/24 01:52:57;;;;;;;41.45;17.10;;;3.00;99.90;;;;;;5097249;28;20043;-83
2023/01/24 01:55:27;;;;;;;42.50;17.60;;;3.40;99.90;;;;;;5096735;28;20476;-83
2023/01/24 01:57:54;;;;;;;36.05;17.90;;;3.00;99.90;;;;;;5114124;28;20055;-83
2023/01/24 02:00:25;;;;;;;38.50;17.52;;;3.00;99.90;;;;;;5080027;28;20388;-83
2023/01/24 02:03:37;;;;;;;37.03;16.40;;;3.00;99.90;;;;;;5097035;28;20051;-82
2023/01/24 02:05:42;;;;;;;48.38;18.60;;;4.00;99.90;;;;;;5113588;28;20384;-83
2023/01/24 02:08:12;;;;;;;39.00;17.90;;;3.70;99.90;;;;;;5096932;28;20044;-82
2023/01/24 02:13:23;;;;;;;38.15;17.30;;;3.80;99.90;;;;;;5113530;28;20044;-83
2023/01/24 02:16:05;;;;;;;40.72;17.40;;;3.40;99.90;;;;;;5079749;28;20040;-82
2023/01/24 02:18:31;;;;;;;;;;;3.50;99.90;;;;;;5114014;28;20051;-83
2023/01/24 02:20:58;;;;;;;37.83;17.10;;;3.10;99.90;;;;;;5113767;28;19915;-83
2023/01/24 02:23:59;;;;;;;35.35;16.60;;;3.00;99.90;;;;;;5112914;28;20407;-84
2023/01/24 02:26:28;;;;;;;39.88;17.73;;;3.00;99.90;;;;;;5113468;28;20055;-84
2023/01/24 02:29:11;;;;;;;42.30;18.15;;;3.30;99.90;;;;;;5113473;28;20043;-84
2023/01/24 02:31:59;;;;;;;41.22;17.83;;;3.60;99.90;;;;;;5096266;28;20047;-85
2023/01/24 02:34:26;;;;;;;38.75;17.40;;;3.70;99.90;;;;;;5113194;28;20133;-84
2023/01/24 02:37:02;;;;;;;41.38;17.90;;;3.70;99.90;;;;;;5096039;28;20086;-84
2023/01/24 02:39:50;;;;;;;42.35;18.45;;;3.00;99.90;;;;;;5096083;28;20044;-84
2023/01/24 02:42:20;;;;;;;38.53;17.95;;;3.00;99.90;;;;;;5113221;28;20529;-84
2023/01/24 02:44:59;;;;;;;44.28;17.48;;;4.00;99.90;;;;;;5095396;28;20352;-82
2023/01/24 02:47:32;;;;;;;40.42;17.88;;;3.00;99.90;;;;;;5096103;28;20062;-83
2023/01/24 02:50:02;;;;;;;45.35;17.75;;;3.00;99.90;;;;;;5095991;28;20472;-82
2023/01/24 02:55:13;;;;;;;39.70;17.98;;;3.00;99.90;;;;;;5112976;28;20109;-83
2023/01/24 03:00:23;;;;;;;39.28;17.42;;;4.00;99.90;;;;;;5133265;27;20046;-83
2023/01/24 03:02:49;;;;;;;39.97;17.13;;;3.30;99.90;;;;;;5116395;27;20200;-84
2023/01/24 03:05:15;;;;;;;40.45;17.95;;;3.50;99.90;;;;;;5116294;27;20035;-83
2023/01/24 03:07:44;;;;;;;39.13;16.92;;;3.00;99.90;;;;;;5099326;27;20039;-82
2023/01/24 03:10:12;;;;;;;42.42;17.92;;;3.90;99.90;;;;;;5116202;27;20043;-84
2023/01/24 03:34:45;;;;;;;34.40;16.02;;;3.40;99.90;;;;;;5118497;28;20051;-83
2023/01/24 03:37:12;;;;;;;34.22;15.30;;;3.00;99.90;;;;;;5103038;28;20069;-83
2023/01/24 03:39:58;;;;;;;34.53;15.32;;;3.10;99.90;;;;;;5115973;28;20084;-82
2023/01/24 03:42:27;;;;;;;37.38;16.35;;;3.70;99.90;;;;;;5133114;28;20126;-83
2023/01/24 03:44:53;;;;;;;34.50;15.63;;;3.40;99.90;;;;;;5098941;28;20066;-82
2023/01/24 03:47:19;;;;;;;35.08;15.35;;;3.00;99.90;;;;;;5132932;28;20043;-83
2023/01/24 03:52:28;;;;;;;28.58;13.07;;;3.50;99.90;;;;;;5103924;28;20409;-83
2023/01/24 03:54:56;;;;;;;26.42;13.07;;;3.00;99.90;;;;;;5134415;27;20046;-83
2023/01/24 03:57:22;;;;;;;23.02;11.90;;;3.10;99.90;;;;;;5119478;27;20042;-82
2023/01/24 03:59:49;;;;;;;27.38;13.35;;;3.10;99.90;;;;;;5102750;27;20043;-82
2023/01/24 04:02:15;;;;;;;25.65;13.00;;;3.50;99.90;;;;;;5136858;27;20043;-82
2023/01/24 04:07:26;;;;;;;26.38;12.77;;;3.40;99.90;;;;;;5122277;27;20467;-82
2023/01/24 04:09:52;;;;;;;28.95;14.23;;;3.40;99.90;;;;;;5136383;27;20043;-83
2023/01/24 04:12:17;;;;;;;28.00;13.70;;;3.50;99.90;;;;;;5102352;27;20045;-83
2023/01/24 04:14:43;;;;;;;29.10;13.82;;;3.50;99.90;;;;;;5102241;27;20058;-83
2023/01/24 04:17:09;;;;;;;28.15;13.52;;;3.10;99.90;;;;;;5102278;27;20424;-83
2023/01/24 04:19:35;;;;;;;28.38;14.13;;;3.10;99.90;;;;;;5119277;27;20043;-82
2023/01/24 04:22:01;;;;;;;29.02;14.30;;;3.60;99.90;;;;;;5136547;27;20039;-83
2023/01/24 04:24:27;;;;;;;29.25;14.07;;;3.10;99.90;;;;;;5118836;27;20069;-82
2023/01/24 04:26:52;;;;;;;25.98;13.32;;;3.80;99.90;;;;;;5118361;27;20043;-83
2023/01/24 04:29:18;;;;;;;29.20;13.95;;;3.20;99.90;;;;;;5099159;28;20047;-83
2023/01/24 04:31:44;;;;;;;29.30;14.35;;;3.10;99.90;;;;;;5115581;28;20048;-83
2023/01/24 04:34:09;;;;;;;26.85;13.73;;;3.90;99.90;;;;;;5097284;28;20059;-83
2023/01/24 04:36:35;;;;;;;29.63;14.70;;;3.10;99.90;;;;;;5096329;28;20487;-83
2023/01/24 04:39:01;;;;;;;31.40;14.93;;;4.00;99.90;;;;;;5079721;28;20047;-83
2023/01/24 04:41:27;;;;;;;29.65;14.85;;;3.80;99.90;;;;;;5113227;28;20044;-85
2023/01/24 04:43:52;;;;;;;29.67;14.95;;;3.30;99.90;;;;;;5096215;28;20048;-81
2023/01/24 04:46:18;;;;;;;32.15;15.68;;;3.10;99.90;;;;;;5079412;28;20456;-84
2023/01/24 04:48:44;;;;;;;31.55;15.52;;;3.10;99.90;;;;;;5079402;28;20055;-84
2023/01/24 04:51:09;;;;;;;28.77;15.35;;;3.10;99.90;;;;;;5096214;28;20035;-84
2023/01/24 04:53:39;;;;;;;32.10;15.43;;;3.10;99.90;;;;;;5079206;28;20047;-84
2023/01/24 04:56:05;;;;;;;31.45;14.73;;;3.10;99.90;;;;;;5096196;28;20040;-84
2023/01/24 04:58:32;;;;;;;32.63;15.18;;;3.10;99.90;;;;;;5112637;28;20054;-84
2023/01/24 05:00:58;;;;;;;30.67;14.93;;;3.10;99.90;;;;;;5096058;28;20050;-83
2023/01/24 05:03:24;;;;;;;33.80;16.00;;;3.80;99.90;;;;;;5095763;28;20086;-85
2023/01/24 05:05:51;;;;;;;29.55;14.73;;;3.30;99.90;;;;;;5095291;28;20468;-83
2023/01/24 05:08:17;;;;;;;32.78;15.85;;;3.50;99.90;;;;;;5112595;28;20035;-83
2023/01/24 05:10:42;;;;;;;29.65;15.27;;;3.10;99.90;;;;;;5112200;28;20464;-84
2023/01/24 05:13:08;;;;;;;34.60;17.00;;;3.10;99.90;;;;;;4743920;28;10000050;-85
2023/01/24 05:15:34;;;;;;;33.70;16.40;;;3.60;99.90;;;;;;5095649;28;20400;-83
2023/01/24 05:18:00;;;;;;;32.67;15.93;;;3.20;99.90;;;;;;5095463;28;20403;-84
2023/01/24 05:20:26;;;;;;;33.42;16.33;;;3.10;99.90;;;;;;5095633;28;20047;-84
2023/01/24 05:22:54;;;;;;;32.83;16.58;;;3.10;99.90;;;;;;5082825;27;20531;-84
2023/01/24 05:25:20;;;;;;;32.78;16.17;;;3.10;99.90;;;;;;5116038;27;20487;-83
2023/01/24 05:27:46;;;;;;;34.40;15.93;;;3.10;99.90;;;;;;5098778;27;20035;-84
2023/01/24 05:30:12;;;;;;;33.28;15.88;;;3.70;99.90;;;;;;5115888;27;20529;-85
2023/01/24 05:32:37;;;;;;;33.40;16.30;;;3.10;99.90;;;;;;5132899;27;20039;-86
2023/01/24 05:35:04;;;;;;;29.55;14.77;;;3.10;75.40;;;;;;5115193;27;20075;-84
2023/01/24 05:37:30;;;;;;;34.33;16.90;;;3.10;99.90;;;;;;5098269;27;20192;-85
2023/01/24 05:39:56;;;;;;;32.47;15.98;;;3.10;99.90;;;;;;5098586;27;20530;-83
2023/01/24 05:42:22;;;;;;;30.85;15.20;;;3.70;99.90;;;;;;5132786;27;20045;-86
2023/01/24 05:44:47;;;;;;;32.35;16.30;;;3.10;99.90;;;;;;5098387;27;20050;-84
2023/01/24 05:47:13;;;;;;;31.58;16.10;;;3.20;99.90;;;;;;5098083;27;20152;-84
2023/01/24 05:49:39;;;;;;;28.98;14.10;;;3.00;99.90;;;;;;5081842;27;20129;-84
2023/01/24 05:52:05;;;;;;;30.85;15.02;;;3.40;99.90;;;;;;5132331;27;20482;-85
2023/01/24 05:54:30;;;;;;;29.60;13.88;;;3.00;87.30;;;;;;5132327;27;20464;-84
2023/01/24 05:56:56;;;;;;;28.23;14.52;;;3.00;99.90;;;;;;5116129;27;20525;-83
2023/01/24 05:59:22;;;;;;;29.23;13.93;;;3.40;99.90;;;;;;5117163;27;20050;-84
2023/01/24 06:01:47;;;;;;;28.23;13.82;;;3.00;99.90;;;;;;5116744;27;20082;-83
2023/01/24 06:04:13;;;;;;;25.90;13.32;;;3.30;99.90;;;;;;5117112;27;20043;-83
2023/01/24 06:06:39;;;;;;;25.40;13.27;;;3.50;69.60;;;;;;5117471;27;20043;-83
2023/01/24 06:09:05;;;;;;;25.75;13.77;;;3.00;93.80;;;;;;5116837;27;20043;-83
2023/01/24 06:11:32;;;;;;;27.85;13.52;;;3.20;73.60;;;;;;5117419;27;20085;-82
2023/01/24 06:13:58;;;;;;;25.83;13.88;;;3.60;39.20;;;;;;5100328;27;20039;-83
2023/01/24 06:16:25;;;;;;;26.92;13.25;;;3.30;54.60;;;;;;5117076;27;20043;-84
2023/01/24 06:18:52;;;;;;;24.23;12.75;;;3.00;58.10;;;;;;5116564;27;20095;-82
2023/01/24 06:21:18;;;;;;;24.33;12.75;;;3.00;1.00;;;;;;5117066;27;20087;-84
2023/01/24 06:23:44;;;;;;;23.83;12.43;;;3.00;1.00;;;;;;5133715;27;20137;-84
2023/01/24 06:26:10;;;;;;;23.65;12.50;;;3.00;1.00;;;;;;5116875;27;20051;-84
2023/01/24 06:28:37;;;;;;;22.92;12.15;;;3.00;1.00;;;;;;5100134;27;20043;-84
2023/01/24 06:31:05;;;;;;;23.15;12.68;;;3.00;1.00;;;;;;5099701;27;20241;-84
2023/01/24 06:33:40;;;;;;;23.73;12.13;;;3.00;1.00;;;;;;5133845;27;20043;-83
2023/01/24 06:36:26;;;;;;;21.58;11.60;;;3.00;1.00;;;;;;5116449;27;20042;-84
2023/01/24 06:38:51;;;;;;;23.08;10.98;;;3.00;1.00;;;;;;5116648;27;20125;-84
2023/01/24 06:41:17;;;;;;;19.08;10.75;;;3.00;1.00;;;;;;5133926;27;20070;-84
2023/01/24 06:43:44;;;;;;;21.85;10.57;;;3.00;1.00;;;;;;5116684;27;20050;-83
2023/01/24 06:46:13;;;;;;;21.15;10.60;;;3.00;1.00;;;;;;5116420;27;20043;-83
2023/01/24 06:48:42;;;;;;;20.23;10.98;;;3.00;1.00;;;;;;5116517;27;20096;-85
2023/01/24 06:51:12;;;;;;;22.33;11.30;;;3.80;1.00;;;;;;5116407;27;20496;-83
2023/01/24 06:53:37;;;;;;;20.27;10.88;;;3.60;1.00;;;;;;5133614;27;20047;-83
2023/01/24 06:56:03;;;;;;;20.67;9.98;;;3.80;1.00;;;;;;5116113;27;20043;-83
2023/01/24 06:58:29;;;;;;;20.73;10.43;;;3.00;1.00;;;;;;5099417;27;20100;-84
2023/01/24 07:00:55;;;;;;;22.23;10.45;;;3.40;1.00;;;;;;5099372;27;20122;-83
2023/01/24 07:03:20;;;;;;;18.02;9.90;;;3.40;99.90;;;;;;5116233;27;20051;-84
2023/01/24 07:05:47;;;;;;;19.88;10.25;;;3.00;99.90;;;;;;5082691;27;20037;-84
2023/01/24 07:08:13;;;;;;;20.52;10.63;;;3.00;1.00;;;;;;5116146;27;20039;-83
2023/01/24 07:10:39;;;;;;;19.50;9.82;;;3.00;99.90;;;;;;5116195;27;20084;-83
2023/01/24 07:13:05;;;;;;;17.42;9.70;;;2.90;99.90;;;;;;5116185;27;20131;-85
2023/01/24 07:15:31;;;;;;;18.70;9.38;;;3.70;99.90;;;;;;5099166;27;20129;-84
2023/01/24 07:18:03;;;;;;;23.30;10.50;;;3.30;99.90;;;;;;5115963;28;20042;-84
2023/01/24 07:20:29;;;;;;;20.80;10.10;;;2.90;1.00;;;;;;5133221;28;20042;-84
2023/01/24 07:22:56;;;;;;;18.35;9.65;;;3.00;1.00;;;;;;5101362;27;20519;-83
2023/01/24 07:25:23;;;;;;;20.88;10.27;;;3.00;1.00;;;;;;5102458;27;20047;-83
2023/01/24 07:27:49;;;;;;;19.88;10.25;;;3.10;1.00;;;;;;5119557;27;20125;-84
2023/01/24 07:30:15;;;;;;;18.45;9.98;;;3.00;1.00;;;;;;5118454;27;20128;-84
2023/01/24 07:32:40;;;;;;;19.83;9.77;;;2.90;1.00;;;;;;5101912;27;20394;-83
2023/01/24 07:35:07;;;;;;;20.70;10.10;;;3.00;1.00;;;;;;5101494;27;20038;-83
2023/01/24 07:37:33;;;;;;;17.50;9.57;;;2.90;1.00;;;;;;5135447;27;20471;-82
2023/01/24 07:39:59;;;;;;;18.80;9.65;;;3.10;1.00;;;;;;5118385;27;20043;-84
2023/01/24 07:42:25;;;;;;;18.67;9.52;;;3.40;1.00;;;;;;5101564;27;20039;-85
2023/01/24 07:44:50;;;;;;;20.02;10.05;;;2.90;1.00;;;;;;5135393;27;20131;-84
2023/01/24 07:47:16;;;;;;;18.42;9.55;;;3.90;1.00;;;;;;5118356;27;20042;-83
2023/01/24 07:49:42;;;;;;;17.27;9.05;;;3.40;1.00;;;;;;5118972;27;20045;-84
2023/01/24 07:52:07;;;;;;;18.85;9.18;;;3.30;1.00;;;;;;5102183;27;20352;-83
2023/01/24 07:54:33;;;;;;;18.80;9.23;;;3.00;1.00;;;;;;5136317;27;20211;-84
2023/01/24 07:57:00;;;;;;;19.42;9.40;;;3.00;1.00;;;;;;5136066;27;20034;-84
2023/01/24 07:59:26;;;;;;;17.23;8.55;;;3.00;1.00;;;;;;5119066;27;20042;-82
2023/01/24 08:01:51;;;;;;;16.25;8.77;;;3.70;99.90;;;;;;5102216;27;20481;-83
2023/01/24 08:04:17;;;;;;;16.88;8.60;;;3.50;99.90;;;;;;5119083;27;20039;-84
2023/01/24 08:07:16;;;;;;;17.67;8.57;;;3.30;99.90;;;;;;5136220;27;20031;-84
2023/01/24 08:09:29;;;;;;;16.25;8.48;;;3.00;99.90;;;;;;5121401;27;20497;-83
2023/01/24 08:11:56;;;;;;;16.27;8.40;;;3.00;99.90;;;;;;5135983;27;20467;-83
2023/01/24 08:14:21;;;;;;;17.48;8.70;;;3.30;99.90;;;;;;5101729;27;20042;-83
2023/01/24 08:16:49;;;;;;;18.20;8.55;;;2.90;99.90;;;;;;5102006;27;20057;-83
2023/01/24 08:19:15;;;;;;;17.42;8.70;;;3.50;99.90;;;;;;5135979;27;20045;-83
2023/01/24 08:21:40;;;;;;;17.30;8.77;;;3.70;99.90;;;;;;5115716;27;20042;-85
2023/01/24 08:24:07;;;;;;;17.00;8.65;;;3.00;99.90;;;;;;5116294;27;20078;-82
2023/01/24 08:26:33;;;;;;;16.20;8.25;;;3.00;99.90;;;;;;5116741;27;20091;-84
2023/01/24 08:28:58;;;;;;;16.45;8.77;;;3.00;99.90;;;;;;5133346;27;20042;-85
2023/01/24 08:31:24;;;;;;;16.17;8.63;;;3.30;99.90;;;;;;5116169;27;20431;-84
2023/01/24 08:33:51;;;;;;;16.05;8.23;;;3.70;99.90;;;;;;5116575;27;20046;-83
2023/01/24 08:36:22;;;;;;;18.53;8.30;;;3.80;99.90;;;;;;4763705;27;10000541;-83
2023/01/24 08:38:47;;;;;;;19.58;9.23;;;3.10;99.90;;;;;;5116523;27;20115;-84
2023/01/24 08:41:13;;;;;;;17.63;8.85;;;3.10;99.90;;;;;;5117241;27;20467;-84
2023/01/24 08:43:39;;;;;;;17.55;8.70;;;3.10;99.90;;;;;;5102723;27;20042;-84
2023/01/24 08:46:04;;;;;;;16.40;8.32;;;3.10;99.90;;;;;;5136892;27;20049;-84
2023/01/24 08:48:30;;;;;;;18.00;9.38;;;3.60;99.90;;;;;;5119962;27;20042;-84
2023/01/24 08:50:56;;;;;;;16.33;8.85;;;3.10;99.90;;;;;;5120097;27;20045;-84
2023/01/24 08:53:22;;;;;;;17.80;9.18;;;3.50;99.90;;;;;;5085982;27;20130;-84
2023/01/24 08:55:49;;;;;;;17.15;8.45;;;3.70;99.90;;;;;;5102375;27;20125;-84
2023/01/24 08:58:16;;;;;;;16.33;8.43;;;3.10;99.90;;;;;;5136518;27;20442;-83
2023/01/24 09:00:42;;;;;;;17.55;8.63;;;3.10;99.90;;;;;;5136990;27;20487;-84
2023/01/24 09:03:15;;;;;;;15.63;7.95;;;3.10;99.90;;;;;;5120023;27;20308;-84
2023/01/24 09:05:41;;;;;;;16.30;8.05;;;4.20;99.90;;;;;;5119825;27;20038;-84
2023/01/24 09:08:07;;;;;;;16.98;8.30;;;3.20;99.90;;;;;;5102534;27;20484;-84
2023/01/24 09:10:33;;;;;;;17.00;9.38;;;3.20;99.90;;;;;;5102579;27;20497;-85
2023/01/24 09:12:59;;;;;;;21.42;9.60;;;3.20;90.70;;;;;;5119564;27;20089;-84
2023/01/24 09:15:25;;;;;;;17.20;8.55;;;3.20;99.90;;;;;;5119297;27;20047;-85
2023/01/24 09:17:51;;;;;;;16.65;8.20;;;3.20;99.90;;;;;;5104121;27;20049;-83
2023/01/24 09:20:18;;;;;;;17.50;9.05;;;3.20;99.90;;;;;;5121633;27;20501;-85
2023/01/24 09:22:44;;;;;;;17.63;8.32;;;3.20;67.90;;;;;;5104602;27;20082;-83
2023/01/24 09:25:10;;;;;;;16.85;8.52;;;3.30;99.90;;;;;;5121769;27;20085;-85
2023/01/24 09:27:36;;;;;;;17.63;8.75;;;3.30;99.90;;;;;;5121380;27;20492;-85
2023/01/24 09:30:04;;;;;;;16.38;8.45;;;3.90;99.90;;;;;;5121619;27;20379;-84
2023/01/24 09:32:30;;;;;;;18.80;9.80;;;3.30;99.90;;;;;;5138530;27;20047;-81
2023/01/24 09:34:56;;;;;;;16.88;8.38;;;3.40;99.90;;;;;;5121480;27;20086;-81
2023/01/24 09:37:22;;;;;;;17.38;9.00;;;3.60;97.80;;;;;;5138055;27;20042;-83
2023/01/24 09:39:48;;;;;;;19.38;9.38;;;3.40;92.40;;;;;;5104464;27;20082;-82
2023/01/24 09:42:44;;;;;;;19.30;9.60;;;3.70;97.40;;;;;;5121396;27;20440;-82
2023/01/24 09:45:23;;;;;;;20.40;9.05;;;3.40;58.70;;;;;;5138399;27;20034;-82
2023/01/24 09:48:01;;;;;;;16.50;8.35;;;3.40;47.10;;;;;;5121297;27;20046;-82
2023/01/24 09:50:42;;;;;;;17.38;8.57;;;3.40;1.00;;;;;;5138176;27;20054;-83
2023/01/24 09:53:34;;;;;;;15.43;8.35;;;3.40;1.00;;;;;;5137937;27;20431;-83
2023/01/24 09:56:01;;;;;;;19.63;9.43;;;3.40;1.00;;;;;;5120226;27;20103;-83
2023/01/24 09:58:33;;;;;;;18.08;9.43;;;3.50;23.20;;;;;;5103930;27;20046;-82
2023/01/24 10:01:01;;;;;;;16.83;9.45;;;3.70;10.70;;;;;;5120978;27;20386;-82
2023/01/24 10:03:27;;;;;;;17.20;9.15;;;3.40;1.00;;;;;;5120861;27;20035;-83
2023/01/24 10:05:57;;;;;;;19.88;9.55;;;3.50;1.00;;;;;;5120803;27;20046;-83
2023/01/24 10:08:26;;;;;;;18.38;9.65;;;4.30;1.00;;;;;;5120557;27;20046;-82
2023/01/24 10:11:04;;;;;;;18.70;9.70;;;3.80;84.90;;;;;;5137614;27;20054;-81
2023/01/24 10:13:50;;;;;;;18.73;9.70;;;3.60;1.00;;;;;;5137707;27;20031;-82
2023/01/24 10:16:34;;;;;;;18.90;10.07;;;4.00;99.90;;;;;;5120626;27;20050;-83
2023/01/24 10:19:31;;;;;;;18.92;9.27;;;3.50;1.00;;;;;;5120688;27;20134;-82
2023/01/24 10:22:17;;;;;;;19.73;9.30;;;3.60;1.00;;;;;;5120567;27;20039;-82
2023/01/24 10:25:06;;;;;;;18.70;9.73;;;3.60;1.00;;;;;;5136702;27;20046;-83
2023/01/24 10:27:38;;;;;;;18.80;9.27;;;3.60;1.00;;;;;;5136455;27;20501;-82
2023/01/24 10:30:18;;;;;;;20.45;10.57;;;3.70;99.90;;;;;;5120453;27;20050;-81
2023/01/24 10:32:47;;;;;;;22.55;10.90;;;3.60;99.90;;;;;;5137218;27;20038;-82
2023/01/24 10:35:41;;;;;;;18.98;9.88;;;3.60;99.90;;;;;;5120264;27;20047;-82
2023/01/24 10:38:13;;;;;;;19.42;9.88;;;3.60;99.90;;;;;;5098207;27;20043;-82
2023/01/24 10:40:50;;;;;;;19.63;10.25;;;3.70;99.90;;;;;;5137237;27;20043;-83
2023/01/24 10:43:17;;;;;;;21.83;10.25;;;3.70;99.90;;;;;;5137308;27;20035;-83
2023/01/24 10:45:49;;;;;;;20.63;10.25;;;3.70;99.90;;;;;;5102980;27;20038;-83
2023/01/24 10:48:40;;;;;;;23.35;10.45;;;3.70;99.90;;;;;;5137142;27;20034;-82
2023/01/24 10:51:15;;;;;;;21.85;10.75;;;3.70;99.90;;;;;;5119692;27;20042;-83
2023/01/24 10:53:41;;;;;;;22.63;10.50;;;3.70;99.90;;;;;;5119720;27;20106;-83
2023/01/24 10:56:08;;;;;;;20.02;11.45;;;3.80;99.90;;;;;;5119819;27;20035;-83
2023/01/24 10:58:53;;;;;;;21.50;11.48;;;4.30;99.90;;;;;;5102863;27;20356;-82
2023/01/24 11:01:21;;;;;;;20.88;10.77;;;3.80;99.90;;;;;;5119884;27;20085;-83
2023/01/24 11:03:50;;;;;;;19.90;10.65;;;3.80;99.90;;;;;;5119007;27;20850;-83
2023/01/24 11:06:24;;;;;;;20.80;10.73;;;4.40;45.50;;;;;;5119773;27;20078;-83
2023/01/24 11:08:55;;;;;;;20.17;10.65;;;3.70;99.90;;;;;;5137196;27;20394;-83
2023/01/24 11:11:30;;;;;;;24.10;10.98;;;3.70;1.00;;;;;;5136999;27;20042;-82
2023/01/24 11:14:01;;;;;;;20.10;9.88;;;4.00;52.30;;;;;;5119770;27;20039;-83
2023/01/24 11:16:41;;;;;;;20.13;10.10;;;3.70;1.00;;;;;;5119350;27;20038;-82
2023/01/24 11:19:29;;;;;;;19.23;9.88;;;3.70;1.00;;;;;;5119632;27;20045;-83
2023/01/24 11:21:58;;;;;;;20.88;11.30;;;3.80;99.90;;;;;;5136683;27;20045;-84
2023/01/24 11:24:25;;;;;;;23.35;11.20;;;3.80;99.90;;;;;;5136057;27;20057;-83
2023/01/24 11:27:26;;;;;;;21.20;10.55;;;4.10;99.90;;;;;;5136369;27;20054;-83
2023/01/24 11:30:06;;;;;;;21.58;10.52;;;3.90;91.00;;;;;;5136475;27;20386;-83
2023/01/24 11:32:55;;;;;;;24.67;11.88;;;3.80;1.00;;;;;;5136185;27;20121;-87
2023/01/24 11:35:37;;;;;;;22.35;10.48;;;3.90;99.90;;;;;;5136672;27;20050;-84
2023/01/24 11:38:27;;;;;;;21.98;11.13;;;3.80;34.30;;;;;;5119464;27;20042;-83
2023/01/24 11:41:02;;;;;;;21.52;10.95;;;3.90;99.90;;;;;;5136041;27;20078;-83
2023/01/24 11:43:54;;;;;;;23.75;11.15;;;3.90;1.00;;;;;;5136564;27;20120;-83
2023/01/24 11:46:21;;;;;;;20.63;11.15;;;3.90;58.00;;;;;;5119444;27;20057;-83
2023/01/24 11:49:09;;;;;;;21.33;11.32;;;3.90;99.90;;;;;;5136241;27;20038;-83
2023/01/24 11:51:57;;;;;;;23.02;11.35;;;3.90;91.20;;;;;;5118896;27;20046;-86
2023/01/24 11:54:26;;;;;;;22.25;11.07;;;4.00;99.90;;;;;;5136396;27;20047;-82
2023/01/24 11:57:04;;;;;;;21.52;11.02;;;4.00;99.90;;;;;;5136065;27;20042;-83
2023/01/24 11:59:37;;;;;;;21.88;11.15;;;4.10;99.90;;;;;;5118899;27;20383;-83
2023/01/24 12:02:15;;;;;;;23.42;11.57;;;4.20;99.90;;;;;;5136350;27;20042;-82
2023/01/24 12:05:05;;;;;;;22.70;11.23;;;4.10;99.90;;;;;;5118987;27;20328;-82
2023/01/24 12:07:57;;;;;;;22.25;11.13;;;4.10;64.20;;;;;;5119216;27;20415;-83
2023/01/24 12:10:30;;;;;;;;;;;4.10;1.00;;;;;;5119597;27;20039;-83
2023/01/24 12:13:03;;;;;;;24.08;12.25;;;4.10;1.00;;;;;;5118935;27;19922;-83
2023/01/24 12:16:04;;;;;;;23.02;12.13;;;4.10;1.00;;;;;;5119590;27;20038;-80
2023/01/24 12:18:54;;;;;;;21.87;10.83;;;4.00;1.00;;;;;;5123091;27;20049;-82
2023/01/24 12:21:23;;;;;;;20.27;11.07;;;4.00;1.00;;;;;;5140004;27;20085;-82
2023/01/24 12:23:57;;;;;;;23.23;11.63;;;4.10;8.30;;;;;;5101749;27;20058;-82
2023/01/24 12:26:30;;;;;;;22.23;11.70;;;4.00;1.00;;;;;;5119403;27;20047;-82
2023/01/24 12:29:08;;;;;;;23.17;12.40;;;4.20;1.00;;;;;;5119124;27;20043;-81
2023/01/24 12:31:45;;;;;;;24.33;11.70;;;4.00;99.90;;;;;;5119224;27;20486;-82
2023/01/24 12:34:35;;;;;;;23.35;12.38;;;4.00;99.90;;;;;;5136075;27;20056;-82
2023/01/24 12:37:35;;;;;;;23.45;12.55;;;4.00;1.00;;;;;;5135924;27;20068;-81
2023/01/24 12:40:07;;;;;;;23.60;12.40;;;4.00;1.00;;;;;;5118725;27;20057;-81
2023/01/24 12:42:36;;;;;;;26.25;13.32;;;4.00;20.80;;;;;;5135929;27;20375;-82
2023/01/24 12:45:10;;;;;;;22.95;12.43;;;4.10;96.10;;;;;;5118844;27;20137;-81
2023/01/24 12:47:53;;;;;;;25.35;12.13;;;4.00;1.00;;;;;;5136126;27;20086;-83
2023/01/24 12:50:40;;;;;;;24.25;13.13;;;3.90;1.00;;;;;;5119072;27;20442;-82
2023/01/24 12:53:31;;;;;;;22.58;12.07;;;3.80;1.00;;;;;;5135770;27;20039;-82
2023/01/24 12:56:01;;;;;;;27.23;12.70;;;3.80;1.00;;;;;;5135699;27;20032;-83
2023/01/24 12:58:34;;;;;;;27.65;13.30;;;3.80;1.00;;;;;;5135755;27;20050;-81
2023/01/24 13:01:21;;;;;;;25.48;12.85;;;3.80;1.00;;;;;;5135556;27;20079;-81
2023/01/24 13:04:17;;;;;;;26.75;13.85;;;3.80;1.00;;;;;;5135579;27;20189;-82
2023/01/24 13:06:43;;;;;;;24.95;12.77;;;3.80;99.90;;;;;;5118537;27;20088;-82
2023/01/24 13:09:27;;;;;;;25.45;12.75;;;3.70;99.90;;;;;;5118290;27;20118;-82
2023/01/24 13:11:55;;;;;;;26.00;12.57;;;3.60;99.90;;;;;;5135476;27;20051;-82
2023/01/24 13:14:35;;;;;;;26.70;13.15;;;4.10;99.90;;;;;;5118483;27;20103;-81
2023/01/24 13:17:17;;;;;;;25.80;13.48;;;3.60;1.00;;;;;;5118091;27;20167;-82
2023/01/24 13:20:06;;;;;;;23.55;12.48;;;3.90;1.00;;;;;;5118538;27;20043;-82
2023/01/24 13:23:18;;;;;;;25.63;12.95;;;3.60;1.00;;;;;;5118312;27;20039;-82
2023/01/24 13:26:26;;;;;;;24.60;12.48;;;3.60;99.90;;;;;;5135271;27;20077;-82
2023/01/24 13:29:15;;;;;;;28.05;13.20;;;3.60;1.00;;;;;;5134428;27;20039;-80
2023/01/24 13:31:50;;;;;;;25.08;12.82;;;3.60;1.00;;;;;;5118281;27;20039;-81
2023/01/24 13:34:21;;;;;;;25.65;13.48;;;3.60;1.00;;;;;;5117776;27;20073;-81
2023/01/24 13:36:50;;;;;;;29.83;13.52;;;3.60;1.00;;;;;;5135107;27;20035;-81